createdAt,value
2022-08-31T02:30:40.108Z,1021.58
2022-08-31T02:31:40.246Z,1021.6
2022-08-31T02:32:40.102Z,1021.57
2022-08-31T02:33:40.097Z,1021.57
2022-08-31T02:34:40.095Z,1021.52
2022-08-31T02:35:40.128Z,1021.51
2022-08-31T02:36:40.121Z,1021.51
2022-08-31T02:37:40.099Z,1021.5
2022-08-31T02:38:40.097Z,1021.49
2022-08-31T02:39:40.106Z,1021.45
2022-08-31T02:40:40.142Z,1021.45
2022-08-31T02:41:40.102Z,1021.44
2022-08-31T02:42:52.793Z,1021.44
2022-08-31T02:43:40.103Z,1021.45
2022-08-31T02:44:40.101Z,1021.43
2022-08-31T02:45:40.118Z,1021.45
2022-08-31T02:46:40.238Z,1021.42
2022-08-31T02:47:40.096Z,1021.44
2022-08-31T02:48:40.097Z,1021.48
2022-08-31T02:49:40.093Z,1021.5
2022-08-31T02:50:40.100Z,1021.47
2022-08-31T02:51:40.101Z,1021.5
2022-08-31T02:52:40.089Z,1021.48
2022-08-31T02:53:40.108Z,1021.45
2022-08-31T02:54:40.082Z,1021.47
2022-08-31T02:55:40.108Z,1021.44
2022-08-31T02:56:40.088Z,1021.43
2022-08-31T02:57:40.091Z,1021.42
2022-08-31T02:58:40.089Z,1021.42
2022-08-31T02:59:40.152Z,1021.4
2022-08-31T03:00:40.086Z,1021.42
2022-08-31T03:01:40.187Z,1021.4
2022-08-31T03:02:40.149Z,1021.41
2022-08-31T03:03:40.089Z,1021.47
2022-08-31T03:04:40.080Z,1021.4
2022-08-31T03:05:40.169Z,1021.38
2022-08-31T03:06:40.092Z,1021.38
2022-08-31T03:07:40.086Z,1021.38
2022-08-31T03:08:40.082Z,1021.39
2022-08-31T03:09:40.069Z,1021.37
2022-08-31T03:10:40.080Z,1021.37
2022-08-31T03:11:40.084Z,1021.37
2022-08-31T03:12:40.080Z,1021.39
2022-08-31T03:13:40.077Z,1021.37
2022-08-31T03:14:40.074Z,1021.35
2022-08-31T03:15:40.120Z,1021.38
2022-08-31T03:16:40.078Z,1021.37
2022-08-31T03:17:40.072Z,1021.38
2022-08-31T03:18:40.082Z,1021.39
2022-08-31T03:19:40.066Z,1021.39
2022-08-31T03:20:40.095Z,1021.33
2022-08-31T03:21:40.095Z,1021.39
2022-08-31T03:22:40.075Z,1021.36
2022-08-31T03:23:40.086Z,1021.36
2022-08-31T03:24:40.080Z,1021.37
2022-08-31T03:25:40.082Z,1021.38
2022-08-31T03:26:40.064Z,1021.37
2022-08-31T03:27:40.067Z,1021.35
2022-08-31T03:28:40.066Z,1021.38
2022-08-31T03:29:40.059Z,1021.36
2022-08-31T03:30:40.215Z,1021.4
2022-08-31T03:31:40.122Z,1021.38
2022-08-31T03:32:40.085Z,1021.42
2022-08-31T03:33:40.072Z,1021.38
2022-08-31T03:34:40.063Z,1021.41
2022-08-31T03:35:40.076Z,1021.37
2022-08-31T03:36:40.089Z,1021.43
2022-08-31T03:37:40.059Z,1021.42
2022-08-31T03:38:40.069Z,1021.48
2022-08-31T03:39:40.071Z,1021.44
2022-08-31T03:40:40.165Z,1021.5
2022-08-31T03:41:40.063Z,1021.51
2022-08-31T03:42:40.078Z,1021.5
2022-08-31T03:43:40.080Z,1021.5
2022-08-31T03:47:45.685Z,1021.44
2022-08-31T03:48:44.377Z,1021.47
2022-08-31T03:49:44.372Z,1021.47
2022-08-31T03:50:44.364Z,1021.47
2022-08-31T03:51:44.402Z,1021.48
2022-08-31T03:52:44.381Z,1021.5
2022-08-31T03:53:44.381Z,1021.51
2022-08-31T03:54:44.383Z,1021.48
2022-08-31T03:55:44.368Z,1021.47
2022-08-31T03:56:44.362Z,1021.47
2022-08-31T03:57:44.366Z,1021.51
2022-08-31T03:58:44.361Z,1021.47
2022-08-31T03:59:44.382Z,1021.48
2022-08-31T04:00:44.378Z,1021.47
2022-08-31T04:01:44.424Z,1021.48
2022-08-31T04:02:44.405Z,1021.49
2022-08-31T04:03:44.353Z,1021.49
2022-08-31T04:04:44.352Z,1021.48
2022-08-31T04:05:44.381Z,1021.47
2022-08-31T04:06:44.419Z,1021.49
2022-08-31T04:07:44.359Z,1021.49
2022-08-31T04:08:44.366Z,1021.45
2022-08-31T04:09:44.378Z,1021.42
2022-08-31T04:10:44.366Z,1021.44
2022-08-31T04:11:45.587Z,1021.46
2022-08-31T04:12:44.368Z,1021.46
2022-08-31T04:13:44.360Z,1021.5
2022-08-31T04:14:44.359Z,1021.49
2022-08-31T04:15:44.443Z,1021.52
2022-08-31T04:16:44.385Z,1021.52
2022-08-31T04:17:44.368Z,1021.52
2022-08-31T04:18:44.379Z,1021.53
2022-08-31T04:19:44.356Z,1021.55
2022-08-31T04:20:44.359Z,1021.57
2022-08-31T04:21:44.676Z,1021.56
2022-08-31T04:22:44.360Z,1021.62
2022-08-31T04:23:44.358Z,1021.62
2022-08-31T04:24:44.362Z,1021.65
2022-08-31T04:25:44.351Z,1021.63
2022-08-31T04:26:44.382Z,1021.65
2022-08-31T04:27:44.362Z,1021.68
2022-08-31T04:28:44.362Z,1021.66
2022-08-31T04:29:44.378Z,1021.65
2022-08-31T04:30:44.414Z,1021.67
2022-08-31T04:31:44.390Z,1021.68
2022-08-31T04:32:44.370Z,1021.69
2022-08-31T04:33:44.442Z,1021.78
2022-08-31T04:34:44.360Z,1021.73
2022-08-31T04:35:44.357Z,1021.76
2022-08-31T04:36:44.404Z,1021.74
2022-08-31T04:37:47.070Z,1021.73
2022-08-31T04:38:44.366Z,1021.73
2022-08-31T04:39:50.870Z,1021.73
2022-08-31T04:40:44.484Z,1021.75
2022-08-31T04:41:44.373Z,1021.77
2022-08-31T04:42:44.351Z,1021.78
2022-08-31T04:43:44.346Z,1021.79
2022-08-31T04:44:44.352Z,1021.78
2022-08-31T04:45:46.124Z,1021.79
2022-08-31T04:46:44.375Z,1021.79
2022-08-31T04:47:44.353Z,1021.83
2022-08-31T04:48:44.358Z,1021.82
2022-08-31T04:49:44.367Z,1021.82
2022-08-31T04:50:44.352Z,1021.81
2022-08-31T04:51:44.383Z,1021.9
2022-08-31T04:52:44.362Z,1021.87
2022-08-31T04:53:44.353Z,1021.88
2022-08-31T04:54:44.355Z,1021.87
2022-08-31T04:55:44.355Z,1021.87
2022-08-31T04:56:44.380Z,1021.89
2022-08-31T04:57:44.370Z,1021.89
2022-08-31T04:58:44.362Z,1021.89
2022-08-31T04:59:44.357Z,1021.81
2022-08-31T05:00:44.351Z,1021.82
2022-08-31T05:01:44.507Z,1021.88
2022-08-31T05:02:46.829Z,1021.89
2022-08-31T05:03:44.356Z,1021.86
2022-08-31T05:04:44.357Z,1021.85
2022-08-31T05:05:44.368Z,1021.88
2022-08-31T05:06:44.398Z,1021.88
2022-08-31T05:07:44.364Z,1021.88
2022-08-31T05:08:44.365Z,1021.9
2022-08-31T05:09:44.364Z,1021.89
2022-08-31T05:10:44.361Z,1021.91
2022-08-31T05:11:44.379Z,1021.91
2022-08-31T05:12:44.373Z,1021.91
2022-08-31T05:13:44.360Z,1021.93
2022-08-31T05:14:44.352Z,1021.93
2022-08-31T05:15:44.423Z,1021.94
2022-08-31T05:16:44.384Z,1021.93
2022-08-31T05:17:44.361Z,1021.96
2022-08-31T05:18:44.358Z,1021.96
2022-08-31T05:19:44.356Z,1022
2022-08-31T05:20:44.370Z,1022.01
2022-08-31T05:21:44.414Z,1022.02
2022-08-31T05:22:44.355Z,1022.05
2022-08-31T05:23:44.350Z,1022.05
2022-08-31T05:24:44.358Z,1022.03
2022-08-31T05:25:44.358Z,1022
2022-08-31T05:26:44.440Z,1022.08
2022-08-31T05:27:44.353Z,1022.06
2022-08-31T05:28:44.354Z,1022.07
2022-08-31T05:29:44.357Z,1022.07
2022-08-31T05:30:44.418Z,1022.08
2022-08-31T05:31:45.553Z,1022.11
2022-08-31T05:32:44.358Z,1022.07
2022-08-31T05:33:44.363Z,1022.08
2022-08-31T05:34:44.359Z,1022.07
2022-08-31T05:35:44.357Z,1022.03
2022-08-31T05:36:44.399Z,1022.12
2022-08-31T05:37:44.354Z,1022.13
2022-08-31T05:38:44.351Z,1022.14
2022-08-31T05:39:44.348Z,1022.15
2022-08-31T05:40:44.489Z,1022.15
2022-08-31T05:41:44.376Z,1022.14
2022-08-31T05:42:44.369Z,1022.17
2022-08-31T05:43:44.359Z,1022.2
2022-08-31T05:44:44.363Z,1022.15
2022-08-31T05:45:44.351Z,1022.21
2022-08-31T05:46:44.493Z,1022.24
2022-08-31T05:47:44.361Z,1022.26
2022-08-31T05:48:49.600Z,1022.29
2022-08-31T05:49:44.356Z,1022.25
2022-08-31T05:50:44.361Z,1022.24
2022-08-31T05:51:44.388Z,1022.23
2022-08-31T05:52:44.363Z,1022.23
2022-08-31T05:53:44.357Z,1022.21
2022-08-31T05:54:44.357Z,1022.25
2022-08-31T05:55:44.353Z,1022.22
2022-08-31T05:56:44.373Z,1022.25
2022-08-31T05:57:44.354Z,1022.24
2022-08-31T05:58:46.113Z,1022.28
2022-08-31T05:59:44.352Z,1022.27
2022-08-31T06:00:44.365Z,1022.31
2022-08-31T06:01:44.405Z,1022.26
2022-08-31T06:02:44.356Z,1022.31
2022-08-31T06:03:44.349Z,1022.29
2022-08-31T06:04:44.385Z,1022.29
2022-08-31T06:05:44.356Z,1022.28
2022-08-31T06:06:44.399Z,1022.28
2022-08-31T06:07:44.350Z,1022.28
2022-08-31T06:08:44.353Z,1022.27
2022-08-31T06:09:44.355Z,1022.28
2022-08-31T06:10:44.355Z,1022.25
2022-08-31T06:11:44.380Z,1022.26
2022-08-31T06:12:44.367Z,1022.29
2022-08-31T06:13:44.350Z,1022.23
2022-08-31T06:14:46.239Z,1022.26
2022-08-31T06:15:44.405Z,1022.27
2022-08-31T06:16:44.387Z,1022.25
2022-08-31T06:17:44.347Z,1022.31
2022-08-31T06:18:44.355Z,1022.29
2022-08-31T06:19:44.354Z,1022.26
2022-08-31T06:20:44.410Z,1022.3
2022-08-31T06:21:50.129Z,1022.3
2022-08-31T06:22:44.355Z,1022.27
2022-08-31T06:23:44.362Z,1022.29
2022-08-31T06:24:44.370Z,1022.31
2022-08-31T06:25:44.361Z,1022.32
2022-08-31T06:26:44.437Z,1022.29
2022-08-31T06:27:44.353Z,1022.33
2022-08-31T06:28:44.355Z,1022.29
2022-08-31T06:29:44.352Z,1022.32
2022-08-31T06:30:54.978Z,1022.39
2022-08-31T06:31:44.448Z,1022.31
2022-08-31T06:32:44.441Z,1022.36
2022-08-31T06:33:44.366Z,1022.39
2022-08-31T06:34:44.364Z,1022.36
2022-08-31T06:35:44.358Z,1022.39
2022-08-31T06:36:44.396Z,1022.4
2022-08-31T06:37:44.371Z,1022.4
2022-08-31T06:38:44.430Z,1022.4
2022-08-31T06:39:44.362Z,1022.43
2022-08-31T06:40:44.420Z,1022.44
2022-08-31T06:41:44.366Z,1022.44
2022-08-31T06:42:44.365Z,1022.49
2022-08-31T06:43:44.357Z,1022.45
2022-08-31T06:44:44.348Z,1022.49
2022-08-31T06:45:44.360Z,1022.48
2022-08-31T06:46:46.535Z,1022.49
2022-08-31T06:47:44.360Z,1022.48
2022-08-31T06:48:44.364Z,1022.47
2022-08-31T06:49:44.356Z,1022.5
2022-08-31T06:50:44.369Z,1022.5
2022-08-31T06:51:44.403Z,1022.42
2022-08-31T06:52:44.362Z,1022.47
2022-08-31T06:53:44.359Z,1022.47
2022-08-31T06:54:44.352Z,1022.46
2022-08-31T06:55:44.371Z,1022.48
2022-08-31T06:56:44.376Z,1022.49
2022-08-31T06:57:44.364Z,1022.49
2022-08-31T06:58:44.364Z,1022.48
2022-08-31T06:59:44.356Z,1022.52
2022-08-31T07:00:44.414Z,1022.52
2022-08-31T07:01:44.467Z,1022.48
2022-08-31T07:02:44.404Z,1022.49
2022-08-31T07:03:44.353Z,1022.48
2022-08-31T07:04:44.369Z,1022.47
2022-08-31T07:05:44.356Z,1022.47
2022-08-31T07:06:44.394Z,1022.44
2022-08-31T07:07:44.364Z,1022.44
2022-08-31T07:08:44.362Z,1022.4
2022-08-31T07:09:44.354Z,1022.38
2022-08-31T07:10:44.356Z,1022.42
2022-08-31T07:11:44.890Z,1022.44
2022-08-31T07:12:44.354Z,1022.39
2022-08-31T07:13:44.351Z,1022.41
2022-08-31T07:14:54.520Z,1022.43
2022-08-31T07:15:44.359Z,1022.46
2022-08-31T07:16:44.439Z,1022.46
2022-08-31T07:17:44.369Z,1022.47
2022-08-31T07:18:44.349Z,1022.5
2022-08-31T07:19:44.951Z,1022.47
2022-08-31T07:20:44.351Z,1022.49
2022-08-31T07:21:44.389Z,1022.48
2022-08-31T07:22:44.372Z,1022.54
2022-08-31T07:23:44.351Z,1022.56
2022-08-31T07:24:44.400Z,1022.56
2022-08-31T07:25:44.351Z,1022.6
2022-08-31T07:26:44.368Z,1022.58
2022-08-31T07:27:44.356Z,1022.56
2022-08-31T07:28:44.447Z,1022.58
2022-08-31T07:29:44.357Z,1022.61
2022-08-31T07:30:44.436Z,1022.63
2022-08-31T07:31:44.358Z,1022.63
2022-08-31T07:32:44.358Z,1022.61
2022-08-31T07:33:44.357Z,1022.57
2022-08-31T07:34:44.344Z,1022.57
2022-08-31T07:35:44.387Z,1022.57
2022-08-31T07:36:44.389Z,1022.6
2022-08-31T07:37:44.360Z,1022.6
2022-08-31T07:38:44.398Z,1022.58
2022-08-31T07:39:44.353Z,1022.61
2022-08-31T07:40:44.452Z,1022.62
2022-08-31T07:41:44.380Z,1022.63
2022-08-31T07:42:44.364Z,1022.62
2022-08-31T07:43:44.353Z,1022.63
2022-08-31T07:44:53.459Z,1022.61
2022-08-31T07:45:44.466Z,1022.6
2022-08-31T07:46:44.382Z,1022.62
2022-08-31T07:47:44.355Z,1022.6
2022-08-31T07:48:44.355Z,1022.62
2022-08-31T07:49:44.362Z,1022.58
2022-08-31T07:50:44.352Z,1022.6
2022-08-31T07:51:44.389Z,1022.62
2022-08-31T07:52:44.353Z,1022.62
2022-08-31T07:53:44.352Z,1022.65
2022-08-31T07:54:44.350Z,1022.63
2022-08-31T07:55:44.359Z,1022.62
2022-08-31T07:56:44.364Z,1022.63
2022-08-31T07:57:44.368Z,1022.68
2022-08-31T07:58:44.353Z,1022.67
2022-08-31T07:59:44.357Z,1022.71
2022-08-31T08:00:44.364Z,1022.73
2022-08-31T08:01:44.473Z,1022.68
2022-08-31T08:02:44.427Z,1022.69
2022-08-31T08:03:44.362Z,1022.73
2022-08-31T08:04:44.366Z,1022.76
2022-08-31T08:05:44.426Z,1022.75
2022-08-31T08:06:44.395Z,1022.67
2022-08-31T08:07:44.359Z,1022.67
2022-08-31T08:08:44.354Z,1022.7
2022-08-31T08:09:44.353Z,1022.7
2022-08-31T08:10:46.724Z,1022.68
2022-08-31T08:11:44.383Z,1022.66
2022-08-31T08:12:44.355Z,1022.64
2022-08-31T08:13:44.349Z,1022.63
2022-08-31T08:14:44.357Z,1022.63
2022-08-31T08:15:44.430Z,1022.67
2022-08-31T08:16:44.422Z,1022.66
2022-08-31T08:17:44.351Z,1022.63
2022-08-31T08:18:44.356Z,1022.71
2022-08-31T08:19:44.352Z,1022.67
2022-08-31T08:20:44.366Z,1022.69
2022-08-31T08:21:44.406Z,1022.68
2022-08-31T08:22:55.122Z,1022.67
2022-08-31T08:23:44.358Z,1022.72
2022-08-31T08:24:44.362Z,1022.69
2022-08-31T08:25:44.384Z,1022.71
2022-08-31T08:26:44.381Z,1022.72
2022-08-31T08:27:44.348Z,1022.74
2022-08-31T08:28:44.358Z,1022.73
2022-08-31T08:29:44.349Z,1022.72
2022-08-31T08:30:44.357Z,1022.71
2022-08-31T08:31:44.448Z,1022.73
2022-08-31T08:32:44.353Z,1022.76
2022-08-31T08:33:44.349Z,1022.72
2022-08-31T08:34:44.349Z,1022.71
2022-08-31T08:35:44.355Z,1022.73
2022-08-31T08:36:44.390Z,1022.72
2022-08-31T08:37:57.659Z,1022.74
2022-08-31T08:38:44.348Z,1022.74
2022-08-31T08:39:44.348Z,1022.73
2022-08-31T08:40:44.717Z,1022.76
2022-08-31T08:41:44.626Z,1022.76
2022-08-31T08:42:44.347Z,1022.8
2022-08-31T08:43:44.345Z,1022.81
2022-08-31T08:44:44.350Z,1022.83
2022-08-31T08:45:44.435Z,1022.85
2022-08-31T08:46:44.469Z,1022.87
2022-08-31T08:47:44.420Z,1022.85
2022-08-31T08:48:44.360Z,1022.88
2022-08-31T08:49:44.424Z,1022.92
2022-08-31T08:50:44.499Z,1022.9
2022-08-31T08:51:44.405Z,1022.88
2022-08-31T08:52:44.362Z,1022.91
2022-08-31T08:53:44.369Z,1022.89
2022-08-31T08:54:44.383Z,1022.87
2022-08-31T08:55:44.351Z,1022.9
2022-08-31T08:56:44.363Z,1022.88
2022-08-31T08:57:44.447Z,1022.91
2022-08-31T08:58:44.345Z,1022.94
2022-08-31T08:59:44.439Z,1022.93
2022-08-31T09:00:44.346Z,1022.92
2022-08-31T09:01:44.471Z,1022.91
2022-08-31T09:02:44.426Z,1022.9
2022-08-31T09:03:44.367Z,1022.89
2022-08-31T09:04:44.355Z,1022.93
2022-08-31T09:05:44.360Z,1022.93
2022-08-31T09:06:46.397Z,1022.93
2022-08-31T09:07:44.355Z,1022.93
2022-08-31T09:08:44.440Z,1022.93
2022-08-31T09:09:44.376Z,1022.93
2022-08-31T09:10:44.354Z,1022.9
2022-08-31T09:11:44.386Z,1022.9
2022-08-31T09:12:44.358Z,1022.94
2022-08-31T09:13:44.355Z,1022.9
2022-08-31T09:14:44.356Z,1022.89
2022-08-31T09:15:44.438Z,1022.89
2022-08-31T09:16:44.372Z,1022.89
2022-08-31T09:17:44.350Z,1022.93
2022-08-31T09:18:44.345Z,1022.87
2022-08-31T09:19:44.363Z,1022.87
2022-08-31T09:20:44.732Z,1022.87
2022-08-31T09:21:44.391Z,1022.85
2022-08-31T09:22:44.354Z,1022.87
2022-08-31T09:23:44.357Z,1022.89
2022-08-31T09:24:44.353Z,1022.87
2022-08-31T09:25:44.696Z,1022.89
2022-08-31T09:26:44.375Z,1022.87
2022-08-31T09:27:44.360Z,1022.87
2022-08-31T09:28:44.364Z,1022.87
2022-08-31T09:29:44.366Z,1022.82
2022-08-31T09:30:44.365Z,1022.81
2022-08-31T09:31:44.442Z,1022.8
2022-08-31T09:32:44.352Z,1022.79
2022-08-31T09:33:44.359Z,1022.77
2022-08-31T09:34:44.350Z,1022.79
2022-08-31T09:35:44.365Z,1022.82
2022-08-31T09:36:44.394Z,1022.79
2022-08-31T09:37:44.367Z,1022.78
2022-08-31T09:38:44.347Z,1022.8
2022-08-31T09:39:44.342Z,1022.79
2022-08-31T09:40:44.406Z,1022.83
2022-08-31T09:41:44.379Z,1022.8
2022-08-31T09:42:44.347Z,1022.81
2022-08-31T09:43:44.360Z,1022.82
2022-08-31T09:44:44.352Z,1022.83
2022-08-31T09:45:44.414Z,1022.8
2022-08-31T09:46:44.464Z,1022.81
2022-08-31T09:47:44.348Z,1022.8
2022-08-31T09:48:44.346Z,1022.75
2022-08-31T09:49:44.351Z,1022.79
2022-08-31T09:50:44.347Z,1022.79
2022-08-31T09:51:44.382Z,1022.81
2022-08-31T09:52:44.348Z,1022.82
2022-08-31T09:53:44.343Z,1022.82
2022-08-31T09:54:47.172Z,1022.87
2022-08-31T09:55:44.367Z,1022.79
2022-08-31T09:56:44.394Z,1022.79
2022-08-31T09:57:44.355Z,1022.73
2022-08-31T09:58:44.382Z,1022.77
2022-08-31T09:59:44.368Z,1022.83
2022-08-31T10:00:44.343Z,1022.8
2022-08-31T10:01:44.525Z,1022.72
2022-08-31T10:02:44.358Z,1022.74
2022-08-31T10:03:44.368Z,1022.72
2022-08-31T10:04:44.457Z,1022.74
2022-08-31T10:05:44.345Z,1022.73
2022-08-31T10:06:44.401Z,1022.71
2022-08-31T10:07:44.360Z,1022.71
2022-08-31T10:08:44.359Z,1022.72
2022-08-31T10:09:44.351Z,1022.7
2022-08-31T10:10:44.352Z,1022.68
2022-08-31T10:11:44.384Z,1022.71
2022-08-31T10:12:44.356Z,1022.71
2022-08-31T10:13:44.355Z,1022.7
2022-08-31T10:14:44.360Z,1022.66
2022-08-31T10:15:44.454Z,1022.68
2022-08-31T10:18:44.953Z,1022.64
2022-08-31T10:19:44.348Z,1022.65
2022-08-31T10:20:44.359Z,1022.64
2022-08-31T10:21:44.525Z,1022.65
2022-08-31T10:25:44.356Z,1022.58
2022-08-31T10:26:44.359Z,1022.56
2022-08-31T10:30:44.397Z,1022.49
2022-08-31T10:31:44.357Z,1022.5
2022-08-31T10:32:44.356Z,1022.45
2022-08-31T10:33:44.357Z,1022.49
2022-08-31T10:34:44.349Z,1022.46
2022-08-31T10:35:44.362Z,1022.51
2022-08-31T10:36:44.363Z,1022.5
2022-08-31T10:37:44.369Z,1022.5
2022-08-31T10:38:44.347Z,1022.52
2022-08-31T10:39:44.356Z,1022.55
2022-08-31T10:40:44.475Z,1022.55
2022-08-31T10:41:44.344Z,1022.53
2022-08-31T10:42:44.374Z,1022.51
2022-08-31T10:43:44.353Z,1022.47
2022-08-31T10:44:47.076Z,1022.47
2022-08-31T10:45:44.356Z,1022.46
2022-08-31T10:46:44.404Z,1022.47
2022-08-31T10:47:44.362Z,1022.43
2022-08-31T10:48:44.371Z,1022.47
2022-08-31T10:49:44.350Z,1022.48
2022-08-31T10:50:44.351Z,1022.48
2022-08-31T10:51:44.373Z,1022.5
2022-08-31T10:52:44.375Z,1022.48
2022-08-31T10:53:44.352Z,1022.49
2022-08-31T10:54:44.366Z,1022.48
2022-08-31T10:55:44.393Z,1022.49
2022-08-31T10:56:44.350Z,1022.46
2022-08-31T10:57:44.375Z,1022.48
2022-08-31T10:58:44.355Z,1022.48
2022-08-31T10:59:46.018Z,1022.43
2022-08-31T11:00:44.347Z,1022.47
2022-08-31T11:01:44.419Z,1022.48
2022-08-31T11:02:44.367Z,1022.48
2022-08-31T11:03:44.351Z,1022.47
2022-08-31T11:04:44.429Z,1022.44
2022-08-31T11:06:44.369Z,1022.45
2022-08-31T11:07:44.380Z,1022.45
2022-08-31T11:08:44.349Z,1022.56
2022-08-31T11:09:44.353Z,1022.51
2022-08-31T11:10:44.353Z,1022.51
2022-08-31T11:11:44.343Z,1022.54
2022-08-31T11:12:44.383Z,1022.52
2022-08-31T11:13:48.662Z,1022.49
2022-08-31T11:14:44.362Z,1022.53
2022-08-31T11:15:44.460Z,1022.57
2022-08-31T11:16:44.349Z,1022.53
2022-08-31T11:17:44.376Z,1022.53
2022-08-31T11:18:44.353Z,1022.5
2022-08-31T11:19:44.360Z,1022.5
2022-08-31T11:20:44.361Z,1022.46
2022-08-31T11:21:44.366Z,1022.49
2022-08-31T11:22:44.371Z,1022.55
2022-08-31T11:23:45.063Z,1022.51
2022-08-31T11:24:44.358Z,1022.53
2022-08-31T11:25:44.354Z,1022.51
2022-08-31T11:26:44.380Z,1022.5
2022-08-31T11:27:44.373Z,1022.47
2022-08-31T11:28:44.360Z,1022.45
2022-08-31T11:29:44.390Z,1022.48
2022-08-31T11:30:44.497Z,1022.46
2022-08-31T11:31:44.424Z,1022.46
2022-08-31T11:32:44.357Z,1022.48
2022-08-31T11:34:00.175Z,1022.47
2022-08-31T11:34:44.394Z,1022.5
2022-08-31T11:35:44.355Z,1022.47
2022-08-31T11:36:44.376Z,1022.42
2022-08-31T11:37:44.377Z,1022.44
2022-08-31T11:38:44.364Z,1022.49
2022-08-31T11:39:44.355Z,1022.51
2022-08-31T11:40:44.435Z,1022.49
2022-08-31T11:41:44.387Z,1022.44
2022-08-31T11:42:44.380Z,1022.46
2022-08-31T11:43:44.355Z,1022.47
2022-08-31T11:44:44.352Z,1022.42
2022-08-31T11:45:45.472Z,1022.47
2022-08-31T11:46:44.401Z,1022.42
2022-08-31T11:47:44.386Z,1022.41
2022-08-31T11:48:44.351Z,1022.43
2022-08-31T11:49:44.355Z,1022.41
2022-08-31T11:50:44.374Z,1022.39
2022-08-31T11:51:44.370Z,1022.37
2022-08-31T11:52:44.383Z,1022.38
2022-08-31T11:53:44.610Z,1022.4
2022-08-31T11:54:44.358Z,1022.38
2022-08-31T11:55:44.357Z,1022.32
2022-08-31T11:56:44.366Z,1022.37
2022-08-31T11:57:44.380Z,1022.31
2022-08-31T11:58:44.355Z,1022.33
2022-08-31T11:59:44.352Z,1022.35
2022-08-31T12:00:44.696Z,1022.4
2022-08-31T12:01:44.356Z,1022.33
2022-08-31T12:02:44.452Z,1022.39
2022-08-31T12:03:44.360Z,1022.41
2022-08-31T12:04:44.359Z,1022.4
2022-08-31T12:05:44.418Z,1022.42
2022-08-31T12:06:44.368Z,1022.44
2022-08-31T12:07:44.373Z,1022.44
2022-08-31T12:08:44.350Z,1022.41
2022-08-31T12:09:44.346Z,1022.38
2022-08-31T12:10:44.357Z,1022.38
2022-08-31T12:11:44.356Z,1022.35
2022-08-31T12:12:44.390Z,1022.38
2022-08-31T12:13:44.361Z,1022.37
2022-08-31T12:14:44.343Z,1022.29
2022-08-31T12:15:44.458Z,1022.25
2022-08-31T12:16:44.351Z,1022.27
2022-08-31T12:17:44.383Z,1022.25
2022-08-31T12:18:44.356Z,1022.22
2022-08-31T12:19:44.359Z,1022.23
2022-08-31T12:20:44.373Z,1022.19
2022-08-31T12:21:44.358Z,1022.21
2022-08-31T12:22:44.377Z,1022.19
2022-08-31T12:25:44.357Z,1022.24
2022-08-31T12:26:45.438Z,1022.21
2022-08-31T12:27:44.443Z,1022.23
2022-08-31T12:28:44.358Z,1022.21
2022-08-31T12:29:44.364Z,1022.22
2022-08-31T12:30:44.395Z,1022.22
2022-08-31T12:31:44.356Z,1022.19
2022-08-31T12:32:44.365Z,1022.21
2022-08-31T12:33:44.367Z,1022.2
2022-08-31T12:34:44.348Z,1022.19
2022-08-31T12:35:44.355Z,1022.22
2022-08-31T12:36:44.373Z,1022.18
2022-08-31T12:37:44.370Z,1022.21
2022-08-31T12:38:44.357Z,1022.19
2022-08-31T12:39:44.356Z,1022.19
2022-08-31T12:40:44.510Z,1022.24
2022-08-31T12:41:44.354Z,1022.22
2022-08-31T12:42:44.403Z,1022.2
2022-08-31T12:43:44.356Z,1022.16
2022-08-31T12:44:44.369Z,1022.2
2022-08-31T12:45:44.356Z,1022.2
2022-08-31T12:46:44.423Z,1022.23
2022-08-31T12:47:44.377Z,1022.2
2022-08-31T12:48:44.356Z,1022.2
2022-08-31T12:49:44.365Z,1022.18
2022-08-31T12:50:44.354Z,1022.17
2022-08-31T12:51:44.371Z,1022.14
2022-08-31T12:52:44.466Z,1022.12
2022-08-31T12:53:44.354Z,1022.14
2022-08-31T12:54:44.378Z,1022.16
2022-08-31T12:55:44.361Z,1022.12
2022-08-31T12:56:44.360Z,1022.17
2022-08-31T12:57:44.376Z,1022.17
2022-08-31T12:58:44.360Z,1022.16
2022-08-31T12:59:59.949Z,1022.13
2022-08-31T13:00:44.356Z,1022.1
2022-08-31T13:01:44.506Z,1022.17
2022-08-31T13:02:44.503Z,1022.16
2022-08-31T13:03:44.357Z,1022.2
2022-08-31T13:04:44.354Z,1022.18
2022-08-31T13:05:44.357Z,1022.14
2022-08-31T13:06:44.385Z,1022.11
2022-08-31T13:07:44.388Z,1022.11
2022-08-31T13:08:44.358Z,1022.05
2022-08-31T13:09:44.363Z,1022.1
2022-08-31T13:10:44.370Z,1022.06
2022-08-31T13:11:44.362Z,1022.07
2022-08-31T13:12:44.383Z,1022.04
2022-08-31T13:13:44.357Z,1022.02
2022-08-31T13:14:44.357Z,1022.03
2022-08-31T13:15:44.367Z,1022.01
2022-08-31T13:16:44.400Z,1022.03
2022-08-31T13:17:44.380Z,1022.1
2022-08-31T13:18:44.354Z,1022.08
2022-08-31T13:19:44.359Z,1022.06
2022-08-31T13:20:44.400Z,1022.05
2022-08-31T13:21:44.372Z,1022.05
2022-08-31T13:22:44.389Z,1022.05
2022-08-31T13:23:44.361Z,1022.06
2022-08-31T13:24:46.030Z,1022.04
2022-08-31T13:25:48.429Z,1022.08
2022-08-31T13:26:44.403Z,1022.1
2022-08-31T13:27:44.376Z,1022.07
2022-08-31T13:28:44.357Z,1022.06
2022-08-31T13:29:44.374Z,1022.11
2022-08-31T13:30:55.023Z,1022.12
2022-08-31T13:31:44.442Z,1022.11
2022-08-31T13:32:44.385Z,1022.13
2022-08-31T13:33:44.362Z,1022.12
2022-08-31T13:34:44.355Z,1022.08
2022-08-31T13:35:44.363Z,1022.07
2022-08-31T13:36:44.375Z,1022.06
2022-08-31T13:37:44.386Z,1022.11
2022-08-31T13:38:44.357Z,1022.1
2022-08-31T13:39:44.361Z,1022.07
2022-08-31T13:40:44.399Z,1022.12
2022-08-31T13:41:44.357Z,1022.12
2022-08-31T13:42:44.377Z,1022.1
2022-08-31T13:43:44.355Z,1022.05
2022-08-31T13:44:44.355Z,1022.05
2022-08-31T13:45:44.385Z,1022.02
2022-08-31T13:46:44.816Z,1022.03
2022-08-31T13:47:57.488Z,1022.01
2022-08-31T13:48:44.353Z,1022
2022-08-31T13:49:44.354Z,1022.02
2022-08-31T13:50:47.653Z,1021.99
2022-08-31T13:51:44.377Z,1021.98
2022-08-31T13:52:44.389Z,1022.01
2022-08-31T13:53:44.358Z,1021.99
2022-08-31T13:54:44.348Z,1021.98
2022-08-31T13:55:44.351Z,1022.03
2022-08-31T13:56:44.385Z,1021.99
2022-08-31T13:57:44.406Z,1022.03
2022-08-31T13:58:44.361Z,1022.01
2022-08-31T13:59:44.411Z,1022.01
2022-08-31T14:00:44.353Z,1022.02
2022-08-31T14:01:44.426Z,1022
2022-08-31T14:02:44.436Z,1021.97
2022-08-31T14:03:44.362Z,1021.97
2022-08-31T14:04:44.463Z,1021.95
2022-08-31T14:05:44.364Z,1021.99
2022-08-31T14:06:44.379Z,1021.95
2022-08-31T14:07:44.384Z,1021.95
2022-08-31T14:08:44.356Z,1021.98
2022-08-31T14:09:44.360Z,1021.92
2022-08-31T14:10:44.365Z,1021.94
2022-08-31T14:11:44.366Z,1021.98
2022-08-31T14:12:44.386Z,1021.97
2022-08-31T14:13:44.356Z,1021.96
2022-08-31T14:14:44.367Z,1021.95
2022-08-31T14:15:44.360Z,1021.97
2022-08-31T14:16:46.321Z,1021.97
2022-08-31T14:18:23.972Z,1021.95
2022-08-31T14:18:44.363Z,1021.92
2022-08-31T14:19:44.361Z,1021.94
2022-08-31T14:21:09.964Z,1021.93
2022-08-31T14:21:44.375Z,1021.95
2022-08-31T14:22:44.396Z,1021.94
2022-08-31T14:23:44.357Z,1021.96
2022-08-31T14:24:44.355Z,1021.98
2022-08-31T14:25:44.358Z,1021.98
2022-08-31T14:26:44.360Z,1021.92
2022-08-31T14:27:44.378Z,1021.97
2022-08-31T14:28:44.361Z,1021.96
2022-08-31T14:29:44.362Z,1021.93
2022-08-31T14:30:44.394Z,1021.94
2022-08-31T14:31:44.371Z,1021.93
2022-08-31T14:32:44.369Z,1021.96
2022-08-31T14:33:44.363Z,1021.91
2022-08-31T14:34:44.357Z,1021.9
2022-08-31T14:35:44.382Z,1021.94
2022-08-31T14:36:44.372Z,1021.89
2022-08-31T14:37:44.384Z,1021.92
2022-08-31T14:38:44.358Z,1021.9
2022-08-31T14:39:44.362Z,1021.98
2022-08-31T14:40:44.397Z,1021.96
2022-08-31T14:41:44.356Z,1021.99
2022-08-31T14:42:44.383Z,1022
2022-08-31T14:43:44.357Z,1022
2022-08-31T14:44:44.360Z,1022.01
2022-08-31T14:45:44.477Z,1022.01
2022-08-31T14:46:44.356Z,1022.01
2022-08-31T14:47:44.375Z,1021.96
2022-08-31T14:48:44.369Z,1021.97
2022-08-31T14:49:44.367Z,1021.95
2022-08-31T14:50:44.368Z,1021.99
2022-08-31T14:51:44.372Z,1021.98
2022-08-31T14:52:44.393Z,1021.94